createdAt,value
2022-12-25T00:01:19.957Z,37.65
2022-12-25T00:03:47.026Z,40.45
2022-12-25T00:06:14.472Z,40.47
2022-12-25T00:08:41.600Z,42.58
2022-12-25T00:11:19.911Z,44.53
2022-12-25T00:13:47.968Z,39.22
2022-12-25T00:16:21.560Z,33.17
2022-12-25T00:18:48.812Z,31.15
2022-12-25T00:21:16.019Z,29.90
2022-12-25T00:23:43.613Z,31.25
2022-12-25T00:26:17.258Z,33.53
2022-12-25T00:28:44.374Z,35.88
2022-12-25T00:31:13.950Z,36.45
2022-12-25T00:33:43.508Z,44.00
2022-12-25T00:36:12.068Z,44.83
2022-12-25T00:38:40.148Z,45.10
2022-12-25T00:41:12.126Z,46.85
2022-12-25T00:43:39.468Z,54.58
2022-12-25T00:46:07.080Z,54.13
2022-12-25T00:48:35.686Z,50.33
2022-12-25T00:51:06.197Z,55.72
2022-12-25T00:53:33.477Z,51.40
2022-12-25T00:56:03.446Z,54.55
2022-12-25T00:58:32.506Z,52.40
2022-12-25T01:00:59.464Z,49.33
2022-12-25T01:03:27.401Z,51.30
2022-12-25T01:06:00.681Z,49.78
2022-12-25T01:08:29.411Z,49.83
2022-12-25T01:10:58.309Z,52.70
2022-12-25T01:13:25.950Z,56.85
2022-12-25T01:15:52.868Z,59.95
2022-12-25T01:18:20.997Z,53.35
2022-12-25T01:20:48.342Z,57.13
2022-12-25T01:23:15.643Z,52.85
2022-12-25T01:25:42.844Z,51.05
2022-12-25T01:28:09.763Z,52.33
2022-12-25T01:30:36.679Z,44.90
2022-12-25T01:33:03.800Z,47.20
2022-12-25T01:35:30.911Z,39.67
2022-12-25T01:37:57.891Z,38.47
2022-12-25T01:40:24.868Z,30.48
2022-12-25T01:42:51.714Z,34.28
2022-12-25T01:45:32.637Z,35.58
2022-12-25T01:48:02.664Z,32.78
2022-12-25T01:50:29.788Z,31.52
2022-12-25T01:52:57.909Z,25.98
2022-12-25T01:55:25.603Z,24.73
2022-12-25T01:57:52.532Z,34.20
2022-12-25T02:00:19.523Z,34.00
2022-12-25T02:02:46.828Z,32.70
2022-12-25T02:05:26.138Z,27.60
2022-12-25T02:07:53.865Z,28.33
2022-12-25T02:10:20.872Z,24.20
2022-12-25T02:12:49.173Z,19.38
2022-12-25T02:15:20.024Z,21.13
2022-12-25T02:17:58.185Z,19.02
2022-12-25T02:20:40.482Z,18.42
2022-12-25T02:23:49.264Z,17.73
2022-12-25T02:26:18.827Z,18.50
2022-12-25T02:29:23.280Z,19.58
2022-12-25T02:31:52.991Z,16.95
2022-12-25T02:34:33.419Z,17.33
2022-12-25T02:37:10.514Z,18.10
2022-12-25T02:40:02.283Z,20.00
2022-12-25T02:42:53.840Z,20.63
2022-12-25T02:46:08.691Z,20.85
2022-12-25T02:49:05.348Z,20.00
2022-12-25T02:51:55.388Z,19.60
2022-12-25T02:54:47.764Z,18.73
2022-12-25T02:57:36.099Z,19.80
2022-12-25T03:00:24.378Z,18.58
2022-12-25T03:03:11.851Z,20.02
2022-12-25T03:05:59.774Z,23.00
2022-12-25T03:08:34.827Z,22.75
2022-12-25T03:11:26.668Z,23.50
2022-12-25T03:14:18.306Z,21.73
2022-12-25T03:16:53.189Z,26.08
2022-12-25T03:19:41.793Z,26.58
2022-12-25T03:22:32.417Z,28.48
2022-12-25T03:25:17.902Z,27.77
2022-12-25T03:27:49.277Z,29.95
2022-12-25T03:30:35.061Z,30.00
2022-12-25T03:33:29.824Z,30.23
2022-12-25T03:36:07.028Z,30.40
2022-12-25T03:39:38.377Z,32.53
2022-12-25T03:42:26.136Z,33.25
2022-12-25T03:45:29.609Z,32.63
2022-12-25T03:48:15.967Z,33.65
2022-12-25T03:51:10.253Z,34.55
2022-12-25T03:54:06.335Z,38.50
2022-12-25T03:56:53.775Z,36.47
2022-12-25T03:59:41.097Z,38.22
2022-12-25T04:02:26.690Z,38.17
2022-12-25T04:05:12.352Z,43.20
2022-12-25T04:07:58.313Z,46.58
2022-12-25T04:10:43.781Z,46.47
2022-12-25T04:13:29.139Z,48.08
2022-12-25T04:16:14.960Z,52.78
2022-12-25T04:19:00.483Z,57.25
2022-12-25T04:21:45.777Z,51.75
2022-12-25T04:24:31.627Z,50.38
2022-12-25T04:27:17.095Z,47.25
2022-12-25T04:30:02.467Z,45.40
2022-12-25T04:32:47.773Z,45.15
2022-12-25T04:35:33.049Z,44.95
2022-12-25T04:37:59.964Z,45.28
2022-12-25T04:40:26.779Z,49.33
2022-12-25T04:42:53.995Z,55.85
2022-12-25T04:45:20.832Z,53.83
2022-12-25T04:47:47.754Z,46.67
2022-12-25T04:50:14.603Z,42.78
2022-12-25T04:52:41.931Z,37.20
2022-12-25T04:55:10.541Z,38.63
2022-12-25T04:57:37.861Z,40.63
2022-12-25T05:00:07.415Z,39.72
2022-12-25T05:02:34.440Z,40.72
2022-12-25T05:05:01.494Z,41.92
2022-12-25T05:07:28.599Z,42.05
2022-12-25T05:09:55.517Z,40.85
2022-12-25T05:12:22.508Z,40.95
2022-12-25T05:14:49.368Z,40.15
2022-12-25T05:17:16.227Z,38.95
2022-12-25T05:19:43.332Z,43.95
2022-12-25T05:22:10.290Z,43.45
2022-12-25T05:24:37.142Z,44.05
2022-12-25T05:27:03.995Z,40.75
2022-12-25T05:29:31.059Z,38.42
2022-12-25T05:31:57.977Z,39.00
2022-12-25T05:34:24.971Z,39.17
2022-12-25T05:36:51.936Z,39.55
2022-12-25T05:39:19.037Z,38.42
2022-12-25T05:41:45.851Z,39.75
2022-12-25T05:44:13.843Z,35.45
2022-12-25T05:46:40.691Z,38.13
2022-12-25T05:49:07.836Z,36.30
2022-12-25T05:51:34.740Z,39.00
2022-12-25T05:54:01.591Z,35.90
2022-12-25T05:56:28.664Z,36.92
2022-12-25T05:58:55.991Z,36.72
2022-12-25T06:01:26.129Z,39.30
2022-12-25T06:06:19.978Z,41.00
2022-12-25T06:08:47.106Z,40.05
2022-12-25T06:11:15.247Z,42.13
2022-12-25T06:13:43.835Z,43.17
2022-12-25T06:16:12.962Z,45.35
2022-12-25T06:18:43.063Z,41.37
2022-12-25T06:21:11.771Z,44.65
2022-12-25T06:23:39.790Z,43.10
2022-12-25T06:26:08.962Z,43.13
2022-12-25T06:28:36.442Z,40.17
2022-12-25T06:31:12.254Z,41.83
2022-12-25T06:33:39.781Z,44.38
2022-12-25T06:36:14.444Z,42.55
2022-12-25T06:38:41.911Z,43.97
2022-12-25T06:41:18.273Z,42.28
2022-12-25T06:43:57.220Z,49.90
2022-12-25T06:46:25.945Z,49.85
2022-12-25T06:48:52.862Z,49.70
2022-12-25T06:51:22.122Z,56.30
2022-12-25T06:53:50.158Z,54.33
2022-12-25T06:56:20.176Z,56.33
2022-12-25T07:01:23.644Z,60.05
2022-12-25T07:03:54.647Z,57.28
2022-12-25T07:06:21.640Z,67.00
2022-12-25T07:08:48.808Z,68.35
2022-12-25T07:11:15.864Z,69.65
2022-12-25T07:13:42.691Z,71.90
2022-12-25T07:16:11.256Z,71.38
2022-12-25T07:18:38.231Z,76.32
2022-12-25T07:21:09.981Z,87.15
2022-12-25T07:23:37.643Z,79.40
2022-12-25T07:26:05.099Z,77.97
2022-12-25T07:28:32.209Z,70.97
2022-12-25T07:31:04.540Z,82.30
2022-12-25T07:33:31.925Z,93.07
2022-12-25T07:35:58.864Z,77.65
2022-12-25T07:38:25.813Z,66.53
2022-12-25T07:40:52.925Z,65.88
2022-12-25T07:43:20.307Z,91.63
2022-12-25T07:45:47.439Z,111.65
2022-12-25T07:48:16.830Z,89.72
2022-12-25T07:50:44.065Z,109.57
2022-12-25T07:53:11.126Z,93.97
2022-12-25T07:55:38.001Z,99.95
2022-12-25T07:58:07.171Z,101.75
2022-12-25T08:00:34.424Z,93.80
2022-12-25T08:03:01.591Z,110.90
2022-12-25T08:05:28.743Z,148.55
2022-12-25T08:07:57.956Z,133.43
2022-12-25T08:10:25.736Z,132.57
2022-12-25T08:12:56.159Z,102.45
2022-12-25T08:15:23.251Z,109.10
2022-12-25T08:17:50.162Z,129.05
2022-12-25T08:20:17.099Z,112.22
2022-12-25T08:22:43.972Z,119.65
2022-12-25T08:25:10.941Z,105.80
2022-12-25T08:27:37.790Z,106.15
2022-12-25T08:30:05.073Z,111.70
2022-12-25T08:32:33.759Z,93.97
2022-12-25T08:35:00.643Z,112.65
2022-12-25T08:37:30.425Z,110.03
2022-12-25T08:39:57.336Z,100.47
2022-12-25T08:42:24.339Z,85.47
2022-12-25T08:44:51.322Z,93.68
2022-12-25T08:47:18.423Z,91.72
2022-12-25T08:49:45.279Z,123.45
2022-12-25T08:52:12.459Z,72.03
2022-12-25T08:54:39.346Z,108.35
2022-12-25T08:57:06.220Z,148.13
2022-12-25T08:59:33.086Z,79.28
2022-12-25T09:01:59.990Z,100.25
2022-12-25T09:04:27.125Z,98.25
2022-12-25T09:06:54.174Z,136.60
2022-12-25T09:09:21.020Z,110.57
2022-12-25T09:11:49.239Z,123.18
2022-12-25T09:14:16.129Z,130.27
2022-12-25T09:16:42.921Z,116.95
2022-12-25T09:19:09.836Z,105.13
2022-12-25T09:21:39.604Z,94.50
2022-12-25T09:24:06.680Z,111.97
2022-12-25T09:26:33.560Z,90.82
2022-12-25T09:29:00.935Z,72.55
2022-12-25T09:31:27.897Z,84.97
2022-12-25T09:33:58.067Z,73.53
2022-12-25T09:38:52.917Z,76.30
2022-12-25T09:41:40.421Z,82.15
2022-12-25T09:44:12.025Z,77.57
2022-12-25T09:46:53.234Z,69.95
2022-12-25T09:49:51.266Z,84.40
2022-12-25T09:52:30.644Z,62.80
2022-12-25T09:55:22.599Z,59.78
2022-12-25T09:57:56.022Z,67.47
2022-12-25T10:00:28.944Z,91.90
2022-12-25T10:03:04.697Z,91.78
2022-12-25T10:05:53.000Z,88.30
2022-12-25T10:08:25.955Z,63.78
2022-12-25T10:11:06.611Z,77.00
2022-12-25T10:13:55.353Z,81.18
2022-12-25T10:16:22.173Z,79.07
2022-12-25T10:19:06.107Z,74.68
2022-12-25T10:21:33.322Z,73.50
2022-12-25T10:24:19.050Z,63.70
2022-12-25T10:26:46.037Z,73.50
2022-12-25T10:29:19.593Z,68.50
2022-12-25T10:31:48.732Z,79.07
2022-12-25T10:34:16.478Z,73.45
2022-12-25T10:36:47.019Z,75.47
2022-12-25T10:39:23.276Z,71.32
2022-12-25T10:42:19.589Z,69.05
2022-12-25T10:45:08.131Z,68.82
2022-12-25T10:47:42.013Z,68.68
2022-12-25T10:50:23.210Z,70.60
2022-12-25T10:53:00.351Z,67.97
2022-12-25T10:55:29.491Z,60.53
2022-12-25T10:57:58.138Z,60.85
2022-12-25T11:00:30.848Z,62.92
2022-12-25T11:02:58.344Z,66.65
2022-12-25T11:05:31.464Z,57.22
2022-12-25T11:08:00.968Z,57.03
2022-12-25T11:10:34.926Z,58.22
2022-12-25T11:13:04.281Z,57.25
2022-12-25T11:15:34.135Z,54.38
2022-12-25T11:18:01.190Z,56.35
2022-12-25T11:20:29.558Z,53.50
2022-12-25T11:22:56.440Z,50.92
2022-12-25T11:25:28.247Z,57.05
2022-12-25T11:28:03.586Z,55.97
2022-12-25T11:30:33.893Z,56.85
2022-12-25T11:33:06.020Z,59.17
2022-12-25T11:35:43.092Z,59.90
2022-12-25T11:38:09.976Z,60.72
2022-12-25T11:40:54.963Z,60.25
2022-12-25T11:43:28.053Z,58.75
2022-12-25T11:46:05.865Z,56.95
2022-12-25T11:48:41.567Z,53.55
2022-12-25T11:51:10.454Z,52.67
2022-12-25T11:54:08.311Z,49.85
2022-12-25T11:56:37.795Z,50.50
2022-12-25T11:59:14.943Z,48.33
2022-12-25T12:01:50.386Z,49.03
2022-12-25T12:04:42.902Z,49.65
2022-12-25T12:07:30.757Z,48.13
2022-12-25T12:10:10.366Z,49.65
2022-12-25T12:12:48.304Z,46.38
2022-12-25T12:15:41.467Z,42.97
2022-12-25T12:18:26.637Z,40.58
2022-12-25T12:21:11.725Z,36.97
2022-12-25T12:24:02.559Z,34.85
2022-12-25T12:26:34.837Z,36.28
2022-12-25T12:29:03.756Z,36.25
2022-12-25T12:31:43.601Z,36.17
2022-12-25T12:34:44.344Z,34.80
2022-12-25T12:37:25.176Z,33.80
2022-12-25T12:39:54.900Z,34.78
2022-12-25T12:42:39.087Z,34.50
2022-12-25T12:45:16.071Z,37.17
2022-12-25T12:47:49.040Z,35.95
2022-12-25T12:50:32.611Z,38.97
2022-12-25T12:53:05.810Z,40.85
2022-12-25T12:55:35.337Z,39.17
2022-12-25T12:58:05.344Z,40.90
2022-12-25T13:03:30.952Z,37.72
2022-12-25T13:06:09.923Z,35.97
2022-12-25T13:09:06.098Z,42.30
2022-12-25T13:11:38.978Z,43.40
2022-12-25T13:14:06.045Z,40.42
2022-12-25T13:16:39.425Z,42.22
2022-12-25T13:19:11.566Z,41.85
2022-12-25T13:21:38.725Z,38.17
2022-12-25T13:24:18.703Z,42.38
2022-12-25T13:29:34.718Z,39.67
2022-12-25T13:32:04.794Z,39.70
2022-12-25T13:34:33.193Z,42.13
2022-12-25T13:37:06.098Z,44.75
2022-12-25T13:39:34.790Z,46.38
2022-12-25T13:42:10.258Z,46.28
2022-12-25T13:44:39.738Z,45.17
2022-12-25T13:47:17.864Z,43.15
2022-12-25T13:49:45.696Z,42.95
2022-12-25T13:52:15.437Z,43.00
2022-12-25T13:55:00.835Z,45.63
2022-12-25T13:57:37.259Z,59.97
2022-12-25T14:00:07.256Z,46.63
2022-12-25T14:05:22.088Z,53.22
2022-12-25T14:07:59.500Z,63.95
2022-12-25T14:10:34.764Z,66.53
2022-12-25T14:13:06.058Z,65.43
2022-12-25T14:15:36.478Z,69.40
2022-12-25T14:18:03.642Z,65.47
2022-12-25T14:20:37.049Z,68.50
2022-12-25T14:23:06.713Z,72.40
2022-12-25T14:25:45.855Z,77.38
2022-12-25T14:28:26.850Z,69.53
2022-12-25T14:30:54.731Z,72.93
2022-12-25T14:33:24.311Z,76.00
2022-12-25T14:35:51.722Z,78.75
2022-12-25T14:38:30.253Z,79.03
2022-12-25T14:41:05.434Z,79.32
2022-12-25T14:43:33.255Z,80.10
2022-12-25T14:46:03.115Z,75.13
2022-12-25T14:51:08.526Z,76.30
2022-12-25T14:53:38.052Z,75.20
2022-12-25T14:56:06.765Z,73.78
2022-12-25T14:58:41.532Z,78.03
2022-12-25T15:01:21.889Z,76.60
2022-12-25T15:03:49.459Z,74.32
2022-12-25T15:06:22.863Z,76.10
2022-12-25T15:08:58.522Z,71.78
2022-12-25T15:11:25.591Z,71.97
2022-12-25T15:13:52.781Z,75.18
2022-12-25T15:16:24.734Z,65.45
2022-12-25T15:18:52.974Z,76.68
2022-12-25T15:21:28.690Z,64.30
2022-12-25T15:23:57.263Z,61.10
2022-12-25T15:26:24.980Z,60.92
2022-12-25T15:28:52.875Z,59.53
2022-12-25T15:31:25.595Z,60.70
2022-12-25T15:33:54.433Z,56.88
2022-12-25T15:36:25.650Z,58.90
2022-12-25T15:38:53.372Z,60.45
2022-12-25T15:41:42.839Z,58.78
2022-12-25T15:44:11.804Z,64.30
2022-12-25T15:46:38.994Z,59.97
2022-12-25T15:49:06.108Z,59.17
2022-12-25T15:51:33.652Z,55.45
2022-12-25T15:54:00.713Z,56.25
2022-12-25T15:56:28.432Z,53.97
2022-12-25T15:58:56.009Z,54.15
2022-12-25T16:01:25.558Z,61.92
2022-12-25T16:03:52.803Z,56.55
2022-12-25T16:06:19.666Z,56.88
2022-12-25T16:08:47.742Z,56.40
2022-12-25T16:11:14.570Z,54.35
2022-12-25T16:13:41.457Z,58.88
2022-12-25T16:16:08.516Z,60.22
2022-12-25T16:18:35.460Z,60.60
2022-12-25T16:21:02.521Z,63.90
2022-12-25T16:23:30.629Z,64.95
2022-12-25T16:25:57.757Z,65.70
2022-12-25T16:28:24.609Z,67.72
2022-12-25T16:30:51.480Z,68.60
2022-12-25T16:33:18.605Z,68.10
2022-12-25T16:35:45.458Z,64.38
2022-12-25T16:38:12.636Z,62.97
2022-12-25T16:40:39.664Z,66.20
2022-12-25T16:43:06.541Z,73.45
2022-12-25T16:45:37.950Z,69.25
2022-12-25T16:48:04.996Z,69.35
2022-12-25T16:50:31.905Z,69.15
2022-12-25T16:52:58.841Z,72.65
2022-12-25T16:55:29.893Z,77.30
2022-12-25T16:57:57.616Z,77.47
2022-12-25T17:00:24.775Z,72.35
2022-12-25T17:02:52.088Z,75.82
2022-12-25T17:05:19.056Z,69.10
2022-12-25T17:07:47.147Z,72.45
2022-12-25T17:10:14.085Z,79.35
2022-12-25T17:12:41.041Z,74.55
2022-12-25T17:15:08.856Z,77.53
2022-12-25T17:17:35.869Z,77.43
2022-12-25T17:20:02.735Z,81.47
2022-12-25T17:22:29.729Z,80.97
2022-12-25T17:24:56.676Z,82.40
2022-12-25T17:27:23.698Z,81.57
2022-12-25T17:29:50.578Z,79.65
2022-12-25T17:32:17.805Z,91.47
2022-12-25T17:34:44.635Z,79.93
2022-12-25T17:37:11.611Z,74.40
2022-12-25T17:39:39.743Z,76.63
2022-12-25T17:42:06.841Z,74.22
2022-12-25T17:44:33.686Z,77.32
2022-12-25T17:47:00.873Z,73.90
2022-12-25T17:49:27.757Z,74.88
2022-12-25T17:51:54.864Z,77.13
2022-12-25T17:54:22.069Z,81.60
2022-12-25T17:56:49.599Z,79.68
2022-12-25T17:59:18.943Z,79.47
2022-12-25T18:01:47.173Z,81.13
2022-12-25T18:04:14.250Z,82.20
2022-12-25T18:06:41.266Z,86.45
2022-12-25T18:09:09.915Z,84.53
2022-12-25T18:11:40.034Z,91.07
2022-12-25T18:16:37.491Z,91.97
2022-12-25T18:19:04.947Z,96.82
2022-12-25T18:21:31.933Z,82.30
2022-12-25T18:23:58.871Z,88.60
2022-12-25T18:26:26.211Z,74.32
2022-12-25T18:28:53.136Z,75.95
2022-12-25T18:31:23.137Z,69.10
2022-12-25T18:36:22.145Z,68.47
2022-12-25T18:38:50.505Z,71.38
2022-12-25T18:41:17.694Z,72.80
2022-12-25T18:43:53.693Z,74.22
2022-12-25T18:46:24.186Z,73.28
2022-12-25T18:51:18.422Z,73.35
2022-12-25T18:53:45.340Z,75.00
2022-12-25T18:56:17.872Z,96.15
2022-12-25T18:58:46.667Z,77.22
2022-12-25T19:01:22.502Z,83.13
2022-12-25T19:03:50.999Z,88.63
2022-12-25T19:06:23.418Z,84.13
2022-12-25T19:08:50.621Z,109.72
2022-12-25T19:11:17.621Z,93.18
2022-12-25T19:13:45.482Z,92.00
2022-12-25T19:16:12.717Z,89.80
2022-12-25T19:18:40.033Z,95.18
2022-12-25T19:21:08.960Z,92.63
2022-12-25T19:23:38.075Z,98.40
2022-12-25T19:26:06.794Z,104.90
2022-12-25T19:28:33.824Z,97.85
2022-12-25T19:31:01.659Z,104.07
2022-12-25T19:33:31.151Z,95.43
2022-12-25T19:38:33.318Z,89.93
2022-12-25T19:41:09.612Z,94.43
2022-12-25T19:43:39.106Z,88.88
2022-12-25T19:46:07.555Z,91.45
2022-12-25T19:48:35.110Z,88.45
2022-12-25T19:51:02.233Z,89.38
2022-12-25T19:53:30.035Z,84.43
2022-12-25T19:56:02.557Z,78.75
2022-12-25T19:58:30.209Z,79.28
2022-12-25T20:01:02.878Z,75.35
2022-12-25T20:03:29.971Z,74.80
2022-12-25T20:05:56.980Z,76.30
2022-12-25T20:08:24.291Z,76.43
2022-12-25T20:10:51.379Z,76.85
2022-12-25T20:13:18.268Z,80.22
2022-12-25T20:15:45.615Z,74.78
2022-12-25T20:18:12.481Z,74.68
2022-12-25T20:20:39.506Z,77.90
2022-12-25T20:23:06.849Z,73.78
2022-12-25T20:25:33.757Z,71.28
2022-12-25T20:28:00.638Z,75.15
2022-12-25T20:30:27.498Z,76.07
2022-12-25T20:32:55.405Z,72.75
2022-12-25T20:35:22.284Z,75.07
2022-12-25T20:37:49.361Z,77.75
2022-12-25T20:40:16.243Z,79.95
2022-12-25T20:42:43.668Z,81.30
2022-12-25T20:45:12.631Z,85.07
2022-12-25T20:47:39.533Z,83.47
2022-12-25T20:50:07.088Z,88.10
2022-12-25T20:52:34.090Z,87.38
2022-12-25T20:55:00.958Z,83.75
2022-12-25T20:57:28.689Z,81.97
2022-12-25T20:59:55.517Z,81.57
2022-12-25T21:02:33.660Z,80.00
2022-12-25T21:05:07.197Z,81.38
2022-12-25T21:07:34.176Z,75.95
2022-12-25T21:10:01.040Z,77.90
2022-12-25T21:12:27.984Z,77.93
2022-12-25T21:14:54.877Z,85.13
2022-12-25T21:17:21.873Z,87.82
2022-12-25T21:19:49.525Z,87.82
2022-12-25T21:22:16.381Z,96.35
2022-12-25T21:24:43.270Z,89.10
2022-12-25T21:27:10.193Z,95.80
2022-12-25T21:29:37.025Z,104.25
2022-12-25T21:32:36.402Z,95.07
2022-12-25T21:35:03.373Z,90.18
2022-12-25T21:37:31.984Z,92.53
2022-12-25T21:39:58.946Z,91.93
2022-12-25T21:42:25.802Z,102.57
2022-12-25T21:44:52.683Z,96.25
2022-12-25T21:47:19.706Z,131.23
2022-12-25T21:50:07.332Z,98.28
2022-12-25T21:52:35.919Z,109.70
2022-12-25T21:55:03.079Z,136.90
2022-12-25T21:57:29.946Z,151.20
2022-12-25T21:59:56.802Z,122.80
2022-12-25T22:02:23.884Z,113.05
2022-12-25T22:04:50.749Z,99.53
2022-12-25T22:07:17.649Z,94.43
2022-12-25T22:09:49.333Z,98.47
2022-12-25T22:12:36.954Z,101.35
2022-12-25T22:15:06.922Z,94.00
2022-12-25T22:20:28.111Z,91.72
2022-12-25T22:22:55.135Z,102.57
2022-12-25T22:25:23.755Z,94.30
2022-12-25T22:27:51.688Z,99.55
2022-12-25T22:30:21.582Z,99.57
2022-12-25T22:32:49.002Z,100.35
2022-12-25T22:35:16.864Z,101.18
2022-12-25T22:37:44.083Z,99.82
2022-12-25T22:40:14.501Z,98.25
2022-12-25T22:42:42.407Z,96.03
2022-12-25T22:45:09.850Z,106.30
2022-12-25T22:47:36.976Z,101.13
2022-12-25T22:50:04.391Z,110.85
2022-12-25T22:52:31.387Z,97.07
2022-12-25T22:54:58.321Z,109.28
2022-12-25T22:57:25.280Z,95.70
2022-12-25T22:59:54.312Z,93.55
2022-12-25T23:02:21.765Z,90.70
2022-12-25T23:04:48.686Z,87.55
2022-12-25T23:07:16.031Z,85.20
2022-12-25T23:09:44.251Z,82.15
2022-12-25T23:12:31.834Z,86.50
2022-12-25T23:14:58.905Z,90.75
2022-12-25T23:17:44.367Z,95.25
2022-12-25T23:20:33.568Z,90.55
2022-12-25T23:23:19.873Z,89.97
2022-12-25T23:26:05.995Z,87.10
2022-12-25T23:28:51.420Z,84.93
2022-12-25T23:31:23.410Z,86.32
2022-12-25T23:33:54.150Z,87.28
2022-12-25T23:36:21.800Z,90.03
2022-12-25T23:38:50.135Z,91.95
2022-12-25T23:41:18.175Z,87.72
2022-12-25T23:43:44.955Z,96.38
2022-12-25T23:46:11.803Z,95.30
2022-12-25T23:48:39.654Z,88.85
2022-12-25T23:51:07.643Z,88.28
2022-12-25T23:53:35.220Z,91.35
2022-12-25T23:56:02.390Z,92.97
2022-12-25T23:58:29.463Z,92.30
